sensor_id;sensor_type;location;lat;lon;timestamp;pressure;altitude;pressure_sealevel;temperature;humidity
32251;BME280;41295;48.518;9.206;2023-04-19T00:01:47;97680.38;;;11.10;69.69
32251;BME280;41295;48.518;9.206;2023-04-19T00:03:49;97673.47;;;11.09;69.61
32251;BME280;41295;48.518;9.206;2023-04-19T00:05:52;97671.72;;;11.09;69.51
32251;BME280;41295;48.518;9.206;2023-04-19T00:07:56;97666.50;;;11.09;69.58
32251;BME280;41295;48.518;9.206;2023-04-19T00:09:59;97665.69;;;11.07;69.41
32251;BME280;41295;48.518;9.206;2023-04-19T00:12:01;97665.75;;;11.05;69.64
32251;BME280;41295;48.518;9.206;2023-04-19T00:14:04;97673.47;;;11.09;69.78
32251;BME280;41295;48.518;9.206;2023-04-19T00:16:07;97667.50;;;11.05;69.82
32251;BME280;41295;48.518;9.206;2023-04-19T00:18:09;97669.16;;;11.07;69.33
32251;BME280;41295;48.518;9.206;2023-04-19T00:20:12;97670.91;;;11.07;69.62
32251;BME280;41295;48.518;9.206;2023-04-19T00:22:15;97665.69;;;11.07;69.67
32251;BME280;41295;48.518;9.206;2023-04-19T00:24:19;97671.84;;;11.04;69.62
32251;BME280;41295;48.518;9.206;2023-04-19T00:26:21;97662.22;;;11.06;69.58
32251;BME280;41295;48.518;9.206;2023-04-19T00:28:24;97668.34;;;11.05;69.47
32251;BME280;41295;48.518;9.206;2023-04-19T00:30:27;97664.81;;;11.06;69.27
32251;BME280;41295;48.518;9.206;2023-04-19T00:32:29;97666.56;;;11.06;69.65
32251;BME280;41295;48.518;9.206;2023-04-19T00:34:32;97667.44;;;11.06;69.58
32251;BME280;41295;48.518;9.206;2023-04-19T00:36:35;97662.22;;;11.06;69.49
32251;BME280;41295;48.518;9.206;2023-04-19T00:38:37;97663.13;;;11.05;69.37
32251;BME280;41295;48.518;9.206;2023-04-19T00:40:42;97653.63;;;11.03;69.53
32251;BME280;41295;48.518;9.206;2023-04-19T00:42:45;97663.25;;;11.01;69.76
32251;BME280;41295;48.518;9.206;2023-04-19T00:44:47;97660.72;;;10.99;69.49
32251;BME280;41295;48.518;9.206;2023-04-19T00:46:50;97654.59;;;11.00;69.44
32251;BME280;41295;48.518;9.206;2023-04-19T00:48:53;97652.81;;;11.02;69.53
32251;BME280;41295;48.518;9.206;2023-04-19T00:50:55;97653.84;;;10.97;69.53
32251;BME280;41295;48.518;9.206;2023-04-19T00:52:58;97652.06;;;10.97;69.68
32251;BME280;41295;48.518;9.206;2023-04-19T00:55:01;97648.00;;;10.90;69.90
32251;BME280;41295;48.518;9.206;2023-04-19T00:57:06;97652.13;;;10.95;69.45
32251;BME280;41295;48.518;9.206;2023-04-19T00:59:08;97646.91;;;10.95;69.34
32251;BME280;41295;48.518;9.206;2023-04-19T01:01:12;97648.72;;;10.93;69.92
32251;BME280;41295;48.518;9.206;2023-04-19T01:03:14;97641.91;;;10.89;69.68
32251;BME280;41295;48.518;9.206;2023-04-19T01:05:18;97649.78;;;10.88;69.73
32251;BME280;41295;48.518;9.206;2023-04-19T01:07:20;97653.28;;;10.87;69.77
32251;BME280;41295;48.518;9.206;2023-04-19T01:09:23;97648.06;;;10.87;69.99
32251;BME280;41295;48.518;9.206;2023-04-19T01:11:27;97648.94;;;10.87;69.91
32251;BME280;41295;48.518;9.206;2023-04-19T01:13:31;97636.94;;;10.81;69.77
32251;BME280;41295;48.518;9.206;2023-04-19T01:15:34;97638.66;;;10.82;69.97
32251;BME280;41295;48.518;9.206;2023-04-19T01:17:37;97635.25;;;10.80;70.26
32251;BME280;41295;48.518;9.206;2023-04-19T01:19:41;97639.53;;;10.81;70.06
32251;BME280;41295;48.518;9.206;2023-04-19T01:21:43;97637.75;;;10.83;69.89
32251;BME280;41295;48.518;9.206;2023-04-19T01:23:48;97631.66;;;10.83;69.67
32251;BME280;41295;48.518;9.206;2023-04-19T01:25:52;97635.25;;;10.80;69.61
32251;BME280;41295;48.518;9.206;2023-04-19T01:27:55;97628.16;;;10.84;69.62
32251;BME280;41295;48.518;9.206;2023-04-19T01:29:57;97634.22;;;10.85;69.96
32251;BME280;41295;48.518;9.206;2023-04-19T01:32:00;97627.25;;;10.85;70.01
32251;BME280;41295;48.518;9.206;2023-04-19T01:34:03;97634.19;;;10.86;69.45
32251;BME280;41295;48.518;9.206;2023-04-19T01:36:06;97632.41;;;10.87;69.65
32251;BME280;41295;48.518;9.206;2023-04-19T01:38:09;97628.91;;;10.88;69.82
32251;BME280;41295;48.518;9.206;2023-04-19T01:40:14;97628.06;;;10.87;69.76
32251;BME280;41295;48.518;9.206;2023-04-19T01:42:17;97622.09;;;10.83;69.53
32251;BME280;41295;48.518;9.206;2023-04-19T01:44:19;97617.81;;;10.81;69.75
32251;BME280;41295;48.518;9.206;2023-04-19T01:46:23;97623.94;;;10.80;69.84
32251;BME280;41295;48.518;9.206;2023-04-19T01:48:25;97611.75;;;10.80;69.53
32251;BME280;41295;48.518;9.206;2023-04-19T01:50:28;97615.25;;;10.79;69.84
32251;BME280;41295;48.518;9.206;2023-04-19T01:52:30;97612.66;;;10.79;69.91
32251;BME280;41295;48.518;9.206;2023-04-19T01:54:33;97612.69;;;10.78;69.65
32251;BME280;41295;48.518;9.206;2023-04-19T01:56:37;97610.84;;;10.81;69.92
32251;BME280;41295;48.518;9.206;2023-04-19T01:58:39;97613.50;;;10.80;69.91
32251;BME280;41295;48.518;9.206;2023-04-19T02:00:42;97615.25;;;10.79;69.74
32251;BME280;41295;48.518;9.206;2023-04-19T02:02:44;97610.16;;;10.76;69.77
32251;BME280;41295;48.518;9.206;2023-04-19T02:04:47;97610.16;;;10.76;69.90
32251;BME280;41295;48.518;9.206;2023-04-19T02:06:50;97607.59;;;10.75;69.75
32251;BME280;41295;48.518;9.206;2023-04-19T02:08:52;97594.59;;;10.73;69.99
32251;BME280;41295;48.518;9.206;2023-04-19T02:10:55;97592.88;;;10.72;69.83
32251;BME280;41295;48.518;9.206;2023-04-19T02:12:59;97602.53;;;10.70;69.90
32251;BME280;41295;48.518;9.206;2023-04-19T02:15:03;97592.88;;;10.72;70.28
32251;BME280;41295;48.518;9.206;2023-04-19T02:17:05;97592.88;;;10.72;70.12
32251;BME280;41295;48.518;9.206;2023-04-19T02:19:08;97590.28;;;10.72;69.96
32251;BME280;41295;48.518;9.206;2023-04-19T02:21:11;97579.16;;;10.67;70.20
32251;BME280;41295;48.518;9.206;2023-04-19T02:23:13;97575.75;;;10.65;70.20
32251;BME280;41295;48.518;9.206;2023-04-19T02:25:16;97574.78;;;10.67;70.38
32251;BME280;41295;48.518;9.206;2023-04-19T02:27:19;97574.03;;;10.64;70.28
32251;BME280;41295;48.518;9.206;2023-04-19T02:29:24;97576.59;;;10.65;70.43
32251;BME280;41295;48.518;9.206;2023-04-19T02:31:26;97567.94;;;10.65;69.95
32251;BME280;41295;48.518;9.206;2023-04-19T02:33:29;97569.69;;;10.64;69.92
32251;BME280;41295;48.518;9.206;2023-04-19T02:35:32;97568.81;;;10.64;69.87
32251;BME280;41295;48.518;9.206;2023-04-19T02:37:34;97566.31;;;10.61;70.31
32251;BME280;41295;48.518;9.206;2023-04-19T02:39:37;97565.34;;;10.63;70.48
32251;BME280;41295;48.518;9.206;2023-04-19T02:41:42;97568.03;;;10.62;70.13
32251;BME280;41295;48.518;9.206;2023-04-19T02:43:44;97572.41;;;10.61;70.49
32251;BME280;41295;48.518;9.206;2023-04-19T02:45:48;97571.53;;;10.61;70.28
32251;BME280;41295;48.518;9.206;2023-04-19T02:47:51;97570.75;;;10.58;69.99
32251;BME280;41295;48.518;9.206;2023-04-19T02:49:53;97570.75;;;10.58;70.31
32251;BME280;41295;48.518;9.206;2023-04-19T02:51:56;97562.06;;;10.58;70.30
32251;BME280;41295;48.518;9.206;2023-04-19T02:53:58;97561.16;;;10.59;69.98
32251;BME280;41295;48.518;9.206;2023-04-19T02:56:01;97561.22;;;10.57;70.22
32251;BME280;41295;48.518;9.206;2023-04-19T02:58:04;97566.50;;;10.56;70.16
32251;BME280;41295;48.518;9.206;2023-04-19T03:00:07;97563.13;;;10.52;70.25
32251;BME280;41295;48.518;9.206;2023-04-19T03:02:12;97560.53;;;10.52;70.41
32251;BME280;41295;48.518;9.206;2023-04-19T03:04:14;97568.34;;;10.52;70.46
32251;BME280;41295;48.518;9.206;2023-04-19T03:06:17;97563.13;;;10.52;70.62
32251;BME280;41295;48.518;9.206;2023-04-19T03:08:20;97564.94;;;10.50;70.50
32251;BME280;41295;48.518;9.206;2023-04-19T03:10:22;97571.03;;;10.49;70.24
32251;BME280;41295;48.518;9.206;2023-04-19T03:12:25;97565.00;;;10.49;70.36
32251;BME280;41295;48.518;9.206;2023-04-19T03:14:28;97566.72;;;10.48;70.74
32251;BME280;41295;48.518;9.206;2023-04-19T03:16:30;97567.69;;;10.44;70.40
32251;BME280;41295;48.518;9.206;2023-04-19T03:18:35;97568.56;;;10.44;70.34
32251;BME280;41295;48.518;9.206;2023-04-19T03:20:38;97565.19;;;10.41;70.43
32251;BME280;41295;48.518;9.206;2023-04-19T03:22:40;97557.31;;;10.42;70.65
32251;BME280;41295;48.518;9.206;2023-04-19T03:24:43;97554.66;;;10.44;70.56
32251;BME280;41295;48.518;9.206;2023-04-19T03:26:46;97566.00;;;10.43;70.86
32251;BME280;41295;48.518;9.206;2023-04-19T03:28:48;97558.19;;;10.43;70.91
32251;BME280;41295;48.518;9.206;2023-04-19T03:30:51;97557.31;;;10.42;71.14
32251;BME280;41295;48.518;9.206;2023-04-19T03:32:53;97546.88;;;10.42;70.65
32251;BME280;41295;48.518;9.206;2023-04-19T03:34:57;97557.25;;;10.44;70.98
32251;BME280;41295;48.518;9.206;2023-04-19T03:37:00;97552.06;;;10.44;70.86
32251;BME280;41295;48.518;9.206;2023-04-19T03:39:03;97546.84;;;10.44;70.78
32251;BME280;41295;48.518;9.206;2023-04-19T03:41:17;97554.72;;;10.42;70.88
32251;BME280;41295;48.518;9.206;2023-04-19T03:43:19;97546.03;;;10.42;71.10
32251;BME280;41295;48.518;9.206;2023-04-19T03:45:22;97547.09;;;10.36;70.94
32251;BME280;41295;48.518;9.206;2023-04-19T03:47:25;97547.88;;;10.38;71.18
32251;BME280;41295;48.518;9.206;2023-04-19T03:49:27;97540.94;;;10.39;71.33
32251;BME280;41295;48.518;9.206;2023-04-19T03:51:31;97540.94;;;10.39;71.26
32251;BME280;41295;48.518;9.206;2023-04-19T03:53:34;97544.50;;;10.36;71.16
32251;BME280;41295;48.518;9.206;2023-04-19T03:55:37;97543.63;;;10.35;71.19
32251;BME280;41295;48.518;9.206;2023-04-19T03:57:40;97542.81;;;10.33;70.93
32251;BME280;41295;48.518;9.206;2023-04-19T03:59:42;97540.34;;;10.30;71.52
32251;BME280;41295;48.518;9.206;2023-04-19T04:01:45;97541.97;;;10.33;71.53
32251;BME280;41295;48.518;9.206;2023-04-19T04:03:50;97541.97;;;10.33;71.16
32251;BME280;41295;48.518;9.206;2023-04-19T04:05:53;97543.81;;;10.31;71.56
32251;BME280;41295;48.518;9.206;2023-04-19T04:07:57;97540.34;;;10.30;71.27
32251;BME280;41295;48.518;9.206;2023-04-19T04:10:00;97542.13;;;10.28;71.32
32251;BME280;41295;48.518;9.206;2023-04-19T04:12:02;97538.66;;;10.28;71.76
32251;BME280;41295;48.518;9.206;2023-04-19T04:14:05;97538.59;;;10.29;71.48
32251;BME280;41295;48.518;9.206;2023-04-19T04:16:08;97541.22;;;10.29;71.94
32251;BME280;41295;48.518;9.206;2023-04-19T04:18:11;97538.59;;;10.29;71.83
32251;BME280;41295;48.518;9.206;2023-04-19T04:20:13;97537.78;;;10.29;71.53
32251;BME280;41295;48.518;9.206;2023-04-19T04:22:16;97535.22;;;10.27;71.80
32251;BME280;41295;48.518;9.206;2023-04-19T04:24:20;97542.13;;;10.28;71.59
32251;BME280;41295;48.518;9.206;2023-04-19T04:26:23;97538.72;;;10.26;71.87
32251;BME280;41295;48.518;9.206;2023-04-19T04:28:31;97542.19;;;10.27;72.14
32251;BME280;41295;48.518;9.206;2023-04-19T04:30:33;97539.56;;;10.27;72.01
32251;BME280;41295;48.518;9.206;2023-04-19T04:32:37;97538.78;;;10.25;71.94
32251;BME280;41295;48.518;9.206;2023-04-19T04:34:41;97546.59;;;10.25;72.04
32251;BME280;41295;48.518;9.206;2023-04-19T04:36:47;97539.63;;;10.25;71.75
32251;BME280;41295;48.518;9.206;2023-04-19T04:38:50;97542.28;;;10.23;71.92
32251;BME280;41295;48.518;9.206;2023-04-19T04:40:55;97542.28;;;10.23;71.66
32251;BME280;41295;48.518;9.206;2023-04-19T04:42:57;97540.50;;;10.24;71.93
32251;BME280;41295;48.518;9.206;2023-04-19T04:45:05;97545.66;;;10.26;71.72
32251;BME280;41295;48.518;9.206;2023-04-19T04:47:08;97550.06;;;10.25;71.85
32251;BME280;41295;48.518;9.206;2023-04-19T04:49:10;97544.84;;;10.25;72.15
32251;BME280;41295;48.518;9.206;2023-04-19T04:51:13;97548.44;;;10.21;71.61
32251;BME280;41295;48.518;9.206;2023-04-19T04:53:16;97541.47;;;10.21;71.74
32251;BME280;41295;48.518;9.206;2023-04-19T04:55:18;97550.19;;;10.20;71.66
32251;BME280;41295;48.518;9.206;2023-04-19T04:57:22;97550.22;;;10.19;71.65
32251;BME280;41295;48.518;9.206;2023-04-19T04:59:25;97545.03;;;10.19;71.98
32251;BME280;41295;48.518;9.206;2023-04-19T05:01:27;97549.53;;;10.14;71.75
32251;BME280;41295;48.518;9.206;2023-04-19T05:03:31;97553.84;;;10.15;71.97
32251;BME280;41295;48.518;9.206;2023-04-19T05:05:33;97554.69;;;10.15;71.87
32251;BME280;41295;48.518;9.206;2023-04-19T05:07:36;97552.09;;;10.15;71.65
32251;BME280;41295;48.518;9.206;2023-04-19T05:09:39;97553.84;;;10.15;71.79
32251;BME280;41295;48.518;9.206;2023-04-19T05:11:44;97553.00;;;10.14;71.65
32251;BME280;41295;48.518;9.206;2023-04-19T05:13:48;97558.16;;;10.16;72.13
32251;BME280;41295;48.518;9.206;2023-04-19T05:15:50;97555.66;;;10.13;71.99
32251;BME280;41295;48.518;9.206;2023-04-19T05:17:53;97560.91;;;10.11;71.49
32251;BME280;41295;48.518;9.206;2023-04-19T05:19:56;97553.97;;;10.10;71.66
32251;BME280;41295;48.518;9.206;2023-04-19T05:21:58;97560.06;;;10.10;71.59
32251;BME280;41295;48.518;9.206;2023-04-19T05:24:01;97560.22;;;10.06;71.49
32251;BME280;41295;48.518;9.206;2023-04-19T05:26:04;97559.28;;;10.07;71.87
32251;BME280;41295;48.518;9.206;2023-04-19T05:28:07;97562.75;;;10.07;71.61
32251;BME280;41295;48.518;9.206;2023-04-19T05:30:11;97565.25;;;10.10;71.59
32251;BME280;41295;48.518;9.206;2023-04-19T05:32:14;97562.59;;;10.12;71.68
32251;BME280;41295;48.518;9.206;2023-04-19T05:34:16;97559.94;;;10.14;71.72
32251;BME280;41295;48.518;9.206;2023-04-19T05:36:22;97567.66;;;10.17;71.49
32251;BME280;41295;48.518;9.206;2023-04-19T05:38:25;97572.09;;;10.15;71.56
32251;BME280;41295;48.518;9.206;2023-04-19T05:40:27;97580.69;;;10.17;71.85
32251;BME280;41295;48.518;9.206;2023-04-19T05:42:30;97569.50;;;10.15;71.66
32251;BME280;41295;48.518;9.206;2023-04-19T05:44:33;97568.63;;;10.14;71.94
32251;BME280;41295;48.518;9.206;2023-04-19T05:46:37;97572.94;;;10.15;71.66
32251;BME280;41295;48.518;9.206;2023-04-19T05:48:39;97568.63;;;10.14;71.92
32251;BME280;41295;48.518;9.206;2023-04-19T05:50:42;97570.28;;;10.17;71.60
32251;BME280;41295;48.518;9.206;2023-04-19T05:52:45;97574.59;;;10.18;71.70
32251;BME280;41295;48.518;9.206;2023-04-19T05:54:47;97577.22;;;10.18;71.68
32251;BME280;41295;48.518;9.206;2023-04-19T05:56:50;97570.97;;;10.22;71.55
32251;BME280;41295;48.518;9.206;2023-04-19T05:58:52;97566.69;;;10.21;71.49
32251;BME280;41295;48.518;9.206;2023-04-19T06:00:56;97567.59;;;10.20;71.68
32251;BME280;41295;48.518;9.206;2023-04-19T06:03:00;97571.84;;;10.22;71.71
32251;BME280;41295;48.518;9.206;2023-04-19T06:05:03;97569.28;;;10.21;71.86
32251;BME280;41295;48.518;9.206;2023-04-19T06:07:11;97570.97;;;10.22;71.42
32251;BME280;41295;48.518;9.206;2023-04-19T06:09:31;97565.00;;;10.20;71.56
32251;BME280;41295;48.518;9.206;2023-04-19T06:11:34;97573.56;;;10.23;71.54
32251;BME280;41295;48.518;9.206;2023-04-19T06:13:50;97571.78;;;10.24;71.70
32251;BME280;41295;48.518;9.206;2023-04-19T06:15:53;97578.72;;;10.25;71.23
32251;BME280;41295;48.518;9.206;2023-04-19T06:17:55;97574.31;;;10.27;71.55
32251;BME280;41295;48.518;9.206;2023-04-19T06:20:01;97580.31;;;10.29;71.52
32251;BME280;41295;48.518;9.206;2023-04-19T06:22:07;97581.94;;;10.33;71.66
32251;BME280;41295;48.518;9.206;2023-04-19T06:24:10;97581.94;;;10.33;71.03
32251;BME280;41295;48.518;9.206;2023-04-19T06:26:12;97574.91;;;10.35;71.35
32251;BME280;41295;48.518;9.206;2023-04-19T06:28:15;97580.25;;;10.32;71.17
32251;BME280;41295;48.518;9.206;2023-04-19T06:30:18;97575.81;;;10.34;71.14
32251;BME280;41295;48.518;9.206;2023-04-19T06:32:20;97580.94;;;10.38;70.85
32251;BME280;41295;48.518;9.206;2023-04-19T06:34:23;97579.22;;;10.37;71.01
32251;BME280;41295;48.518;9.206;2023-04-19T06:36:27;97583.63;;;10.34;70.90
32251;BME280;41295;48.518;9.206;2023-04-19T06:38:29;97581.00;;;10.36;71.28
32251;BME280;41295;48.518;9.206;2023-04-19T06:40:32;97583.53;;;10.38;70.63
32251;BME280;41295;48.518;9.206;2023-04-19T06:42:35;97579.91;;;10.42;70.38
32251;BME280;41295;48.518;9.206;2023-04-19T06:44:38;97581.69;;;10.41;70.45
32251;BME280;41295;48.518;9.206;2023-04-19T06:46:40;97584.25;;;10.43;71.05
32251;BME280;41295;48.518;9.206;2023-04-19T06:48:43;97587.72;;;10.43;70.65
32251;BME280;41295;48.518;9.206;2023-04-19T06:50:45;97582.44;;;10.45;70.55
32251;BME280;41295;48.518;9.206;2023-04-19T06:52:49;97582.41;;;10.46;70.63
32251;BME280;41295;48.518;9.206;2023-04-19T06:54:52;97579.84;;;10.45;70.54
32251;BME280;41295;48.518;9.206;2023-04-19T06:56:55;97582.50;;;10.43;70.86
32251;BME280;41295;48.518;9.206;2023-04-19T06:58:57;97582.44;;;10.45;70.61
32251;BME280;41295;48.518;9.206;2023-04-19T07:01:00;97574.63;;;10.45;70.39
32251;BME280;41295;48.518;9.206;2023-04-19T07:03:04;97575.47;;;10.45;70.64
32251;BME280;41295;48.518;9.206;2023-04-19T07:05:07;97576.25;;;10.49;70.55
32251;BME280;41295;48.518;9.206;2023-04-19T07:07:10;97578.84;;;10.49;70.68
32251;BME280;41295;48.518;9.206;2023-04-19T07:09:14;97575.38;;;10.50;70.64
32251;BME280;41295;48.518;9.206;2023-04-19T07:11:16;97578.84;;;10.49;70.83
32251;BME280;41295;48.518;9.206;2023-04-19T07:13:22;97577.97;;;10.50;70.92
32251;BME280;41295;48.518;9.206;2023-04-19T07:15:25;97574.50;;;10.50;70.55
32251;BME280;41295;48.518;9.206;2023-04-19T07:17:27;97578.03;;;10.49;70.63
32251;BME280;41295;48.518;9.206;2023-04-19T07:19:30;97571.91;;;10.50;70.14
32251;BME280;41295;48.518;9.206;2023-04-19T07:21:33;97572.84;;;10.45;70.59
32251;BME280;41295;48.518;9.206;2023-04-19T07:23:36;97573.75;;;10.44;70.29
32251;BME280;41295;48.518;9.206;2023-04-19T07:25:39;97572.81;;;10.47;70.36
32251;BME280;41295;48.518;9.206;2023-04-19T07:27:42;97571.09;;;10.46;70.61
32251;BME280;41295;48.518;9.206;2023-04-19T07:29:45;97570.19;;;10.47;70.21
32251;BME280;41295;48.518;9.206;2023-04-19T07:31:47;97566.72;;;10.48;70.64
32251;BME280;41295;48.518;9.206;2023-04-19T07:33:50;97571.03;;;10.49;70.45
32251;BME280;41295;48.518;9.206;2023-04-19T07:35:53;97569.34;;;10.46;70.70
32251;BME280;41295;48.518;9.206;2023-04-19T07:37:56;97570.97;;;10.52;70.51
32251;BME280;41295;48.518;9.206;2023-04-19T07:39:59;97571.84;;;10.51;70.25
32251;BME280;41295;48.518;9.206;2023-04-19T07:42:03;97570.09;;;10.52;70.64
32251;BME280;41295;48.518;9.206;2023-04-19T07:44:06;97564.81;;;10.53;70.19
32251;BME280;41295;48.518;9.206;2023-04-19T07:46:09;97568.25;;;10.55;70.53
32251;BME280;41295;48.518;9.206;2023-04-19T07:48:12;97560.47;;;10.54;70.27
32251;BME280;41295;48.518;9.206;2023-04-19T07:50:15;97563.03;;;10.55;70.03
32251;BME280;41295;48.518;9.206;2023-04-19T07:52:17;97560.31;;;10.58;69.89
32251;BME280;41295;48.518;9.206;2023-04-19T07:54:20;97558.41;;;10.64;69.77
32251;BME280;41295;48.518;9.206;2023-04-19T07:56:23;97558.41;;;10.64;69.83
32251;BME280;41295;48.518;9.206;2023-04-19T07:58:28;97563.56;;;10.65;69.95
32251;BME280;41295;48.518;9.206;2023-04-19T08:00:30;97557.28;;;10.71;69.21
32251;BME280;41295;48.518;9.206;2023-04-19T08:02:35;97554.78;;;10.68;69.36
32251;BME280;41295;48.518;9.206;2023-04-19T08:04:38;97552.19;;;10.68;69.47
32251;BME280;41295;48.518;9.206;2023-04-19T08:06:41;97560.91;;;10.67;69.36
32251;BME280;41295;48.518;9.206;2023-04-19T08:08:44;97550.44;;;10.68;69.20
32251;BME280;41295;48.518;9.206;2023-04-19T08:10:47;97557.22;;;10.73;69.29
32251;BME280;41295;48.518;9.206;2023-04-19T08:12:49;97548.47;;;10.75;69.01
32251;BME280;41295;48.518;9.206;2023-04-19T08:15:08;97548.41;;;10.77;69.06
32251;BME280;41295;48.518;9.206;2023-04-19T08:17:31;97548.25;;;10.81;68.54
32251;BME280;41295;48.518;9.206;2023-04-19T08:19:42;97542.97;;;10.83;68.70
32251;BME280;41295;48.518;9.206;2023-04-19T08:21:45;97545.44;;;10.88;68.51
32251;BME280;41295;48.518;9.206;2023-04-19T08:23:48;97545.38;;;10.89;68.17
32251;BME280;41295;48.518;9.206;2023-04-19T08:25:54;97546.00;;;10.96;67.64
32251;BME280;41295;48.518;9.206;2023-04-19T08:27:57;97545.00;;;11.00;67.65
32251;BME280;41295;48.518;9.206;2023-04-19T08:29:59;97541.06;;;11.14;67.00
32251;BME280;41295;48.518;9.206;2023-04-19T08:32:04;97541.72;;;11.19;67.11
32251;BME280;41295;48.518;9.206;2023-04-19T08:34:06;97547.00;;;11.17;67.16
32251;BME280;41295;48.518;9.206;2023-04-19T08:36:12;97544.34;;;11.19;67.31
32251;BME280;41295;48.518;9.206;2023-04-19T08:38:22;97541.84;;;11.16;66.96
32251;BME280;41295;48.518;9.206;2023-04-19T08:40:25;97535.72;;;11.17;66.79
32251;BME280;41295;48.518;9.206;2023-04-19T08:42:27;97538.25;;;11.18;66.76
32251;BME280;41295;48.518;9.206;2023-04-19T08:44:38;97534.72;;;11.21;66.41
32251;BME280;41295;48.518;9.206;2023-04-19T08:47:03;97537.19;;;11.24;66.19
32251;BME280;41295;48.518;9.206;2023-04-19T08:49:07;97533.63;;;11.27;65.92
32251;BME280;41295;48.518;9.206;2023-04-19T08:51:11;97539.59;;;11.30;66.38
32251;BME280;41295;48.518;9.206;2023-04-19T08:53:14;97539.41;;;11.35;66.00
32251;BME280;41295;48.518;9.206;2023-04-19T08:55:27;97542.50;;;11.47;65.28
32251;BME280;41295;48.518;9.206;2023-04-19T08:57:30;97537.28;;;11.47;65.38
32251;BME280;41295;48.518;9.206;2023-04-19T08:59:33;97536.28;;;11.49;65.19
32251;BME280;41295;48.518;9.206;2023-04-19T09:01:36;97534.31;;;11.56;65.21
32251;BME280;41295;48.518;9.206;2023-04-19T09:03:43;97535.22;;;11.55;65.37
32251;BME280;41295;48.518;9.206;2023-04-19T09:06:06;97523.84;;;11.56;65.31
32251;BME280;41295;48.518;9.206;2023-04-19T09:08:23;97527.06;;;11.64;64.82
32251;BME280;41295;48.518;9.206;2023-04-19T09:10:26;97523.56;;;11.64;64.94
32251;BME280;41295;48.518;9.206;2023-04-19T09:12:29;97524.50;;;11.63;63.64
32251;BME280;41295;48.518;9.206;2023-04-19T09:14:31;97520.16;;;11.62;63.35
32251;BME280;41295;48.518;9.206;2023-04-19T09:16:34;97515.81;;;11.62;63.66
32251;BME280;41295;48.518;9.206;2023-04-19T09:18:53;97518.13;;;11.70;63.26
32251;BME280;41295;48.518;9.206;2023-04-19T09:21:26;97517.28;;;11.70;63.74
32251;BME280;41295;48.518;9.206;2023-04-19T09:23:29;97513.69;;;11.72;63.98
32251;BME280;41295;48.518;9.206;2023-04-19T09:25:31;97511.03;;;11.74;63.96
32251;BME280;41295;48.518;9.206;2023-04-19T09:27:54;97511.03;;;11.74;63.98
32251;BME280;41295;48.518;9.206;2023-04-19T09:30:10;97511.06;;;11.72;63.81
32251;BME280;41295;48.518;9.206;2023-04-19T09:32:24;97504.88;;;11.75;63.99
32251;BME280;41295;48.518;9.206;2023-04-19T09:34:29;97502.28;;;11.75;64.07
32251;BME280;41295;48.518;9.206;2023-04-19T09:36:32;97506.63;;;11.74;64.15
32251;BME280;41295;48.518;9.206;2023-04-19T09:38:45;97502.34;;;11.73;64.13
32251;BME280;41295;48.518;9.206;2023-04-19T09:40:49;97504.16;;;11.71;64.49
32251;BME280;41295;48.518;9.206;2023-04-19T09:42:51;97498.13;;;11.69;64.68
32251;BME280;41295;48.518;9.206;2023-04-19T09:44:57;97501.59;;;11.70;65.18
32251;BME280;41295;48.518;9.206;2023-04-19T09:47:20;97491.16;;;11.70;65.41
32251;BME280;41295;48.518;9.206;2023-04-19T09:49:23;97485.69;;;11.76;65.74
32251;BME280;41295;48.518;9.206;2023-04-19T09:51:50;97482.03;;;11.80;65.68
32251;BME280;41295;48.518;9.206;2023-04-19T09:53:53;97484.59;;;11.82;65.13
32251;BME280;41295;48.518;9.206;2023-04-19T09:55:55;97483.69;;;11.83;64.73
32251;BME280;41295;48.518;9.206;2023-04-19T09:58:03;97482.72;;;11.85;64.47
32251;BME280;41295;48.518;9.206;2023-04-19T10:00:07;97482.66;;;11.87;64.39
32251;BME280;41295;48.518;9.206;2023-04-19T10:02:13;97479.25;;;11.85;64.44
32251;BME280;41295;48.518;9.206;2023-04-19T10:04:17;97474.00;;;11.85;64.47
32251;BME280;41295;48.518;9.206;2023-04-19T10:06:43;97478.22;;;11.89;64.15
32251;BME280;41295;48.518;9.206;2023-04-19T10:09:06;97475.72;;;11.86;64.03
32251;BME280;41295;48.518;9.206;2023-04-19T10:11:10;97467.03;;;11.85;64.03
32251;BME280;41295;48.518;9.206;2023-04-19T10:13:17;97474.75;;;11.88;64.15
32251;BME280;41295;48.518;9.206;2023-04-19T10:15:27;97468.69;;;11.88;64.46
32251;BME280;41295;48.518;9.206;2023-04-19T10:17:50;97464.22;;;11.90;64.43
32251;BME280;41295;48.518;9.206;2023-04-19T10:19:57;97468.34;;;11.96;64.48
32251;BME280;41295;48.518;9.206;2023-04-19T10:22:01;97460.44;;;11.97;64.34
32251;BME280;41295;48.518;9.206;2023-04-19T10:24:12;97458.41;;;12.06;63.88
32251;BME280;41295;48.518;9.206;2023-04-19T10:26:14;97455.72;;;12.07;63.52
32251;BME280;41295;48.518;9.206;2023-04-19T10:28:17;97462.44;;;12.14;63.95
32251;BME280;41295;48.518;9.206;2023-04-19T10:30:21;97457.94;;;12.18;63.64
32251;BME280;41295;48.518;9.206;2023-04-19T10:32:28;97458.72;;;12.20;63.02
32251;BME280;41295;48.518;9.206;2023-04-19T10:34:38;97456.81;;;12.24;62.88
32251;BME280;41295;48.518;9.206;2023-04-19T10:36:42;97457.41;;;12.31;62.68
32251;BME280;41295;48.518;9.206;2023-04-19T10:38:47;97453.94;;;12.30;63.11
32251;BME280;41295;48.518;9.206;2023-04-19T10:40:56;97451.03;;;12.38;62.70
32251;BME280;41295;48.518;9.206;2023-04-19T10:43:14;97454.34;;;12.42;62.47
32251;BME280;41295;48.518;9.206;2023-04-19T10:45:32;97451.84;;;12.38;62.25
32251;BME280;41295;48.518;9.206;2023-04-19T10:47:42;97444.94;;;12.37;62.32
32251;BME280;41295;48.518;9.206;2023-04-19T10:49:45;97437.09;;;12.37;62.35
32251;BME280;41295;48.518;9.206;2023-04-19T10:51:49;97439.69;;;12.37;61.89
32251;BME280;41295;48.518;9.206;2023-04-19T10:53:55;97438.84;;;12.37;61.86
32251;BME280;41295;48.518;9.206;2023-04-19T10:55:59;97428.31;;;12.38;61.81
32251;BME280;41295;48.518;9.206;2023-04-19T10:58:03;97429.25;;;12.37;62.01
32251;BME280;41295;48.518;9.206;2023-04-19T11:00:17;97424.66;;;12.43;61.69